sensor_id;sensor_type;location;lat;lon;timestamp;P1;durP1;ratioP1;P2;durP2;ratioP2
42000;SDS011;27689;48.390;10.856;2024-03-08T00:01:27;24.60;;;16.20;;
42000;SDS011;27689;48.390;10.856;2024-03-08T00:04:11;25.37;;;15.70;;
42000;SDS011;27689;48.390;10.856;2024-03-08T00:06:54;26.60;;;14.77;;
42000;SDS011;27689;48.390;10.856;2024-03-08T00:09:38;24.15;;;17.02;;
42000;SDS011;27689;48.390;10.856;2024-03-08T00:12:22;25.52;;;16.00;;
42000;SDS011;27689;48.390;10.856;2024-03-08T00:15:08;23.70;;;15.52;;
42000;SDS011;27689;48.390;10.856;2024-03-08T00:17:57;24.08;;;15.82;;
42000;SDS011;27689;48.390;10.856;2024-03-08T00:20:41;22.83;;;15.25;;
42000;SDS011;27689;48.390;10.856;2024-03-08T00:23:25;21.98;;;14.65;;
42000;SDS011;27689;48.390;10.856;2024-03-08T00:26:09;24.35;;;15.57;;
42000;SDS011;27689;48.390;10.856;2024-03-08T00:28:53;25.00;;;16.20;;
42000;SDS011;27689;48.390;10.856;2024-03-08T00:31:37;23.35;;;15.48;;
42000;SDS011;27689;48.390;10.856;2024-03-08T00:34:21;23.80;;;15.30;;
42000;SDS011;27689;48.390;10.856;2024-03-08T00:37:06;24.90;;;16.30;;
42000;SDS011;27689;48.390;10.856;2024-03-08T00:39:50;26.15;;;16.02;;
42000;SDS011;27689;48.390;10.856;2024-03-08T00:42:35;23.83;;;15.18;;
42000;SDS011;27689;48.390;10.856;2024-03-08T00:45:19;25.08;;;15.85;;
42000;SDS011;27689;48.390;10.856;2024-03-08T00:48:03;24.33;;;15.18;;
42000;SDS011;27689;48.390;10.856;2024-03-08T00:50:47;29.52;;;17.42;;
42000;SDS011;27689;48.390;10.856;2024-03-08T00:53:31;21.58;;;14.95;;
42000;SDS011;27689;48.390;10.856;2024-03-08T00:56:15;24.02;;;14.65;;
42000;SDS011;27689;48.390;10.856;2024-03-08T00:58:59;22.60;;;14.88;;
42000;SDS011;27689;48.390;10.856;2024-03-08T01:01:43;21.52;;;15.18;;
42000;SDS011;27689;48.390;10.856;2024-03-08T01:04:27;26.27;;;16.00;;
42000;SDS011;27689;48.390;10.856;2024-03-08T01:07:15;25.52;;;15.30;;
42000;SDS011;27689;48.390;10.856;2024-03-08T01:09:59;24.20;;;15.23;;
42000;SDS011;27689;48.390;10.856;2024-03-08T01:12:44;25.48;;;15.07;;
42000;SDS011;27689;48.390;10.856;2024-03-08T01:15:29;21.98;;;14.52;;
42000;SDS011;27689;48.390;10.856;2024-03-08T01:20:57;26.77;;;15.60;;
42000;SDS011;27689;48.390;10.856;2024-03-08T01:23:41;25.23;;;15.48;;
42000;SDS011;27689;48.390;10.856;2024-03-08T01:26:25;26.17;;;16.13;;
42000;SDS011;27689;48.390;10.856;2024-03-08T01:29:09;25.77;;;15.77;;
42000;SDS011;27689;48.390;10.856;2024-03-08T01:31:53;27.40;;;16.48;;
42000;SDS011;27689;48.390;10.856;2024-03-08T01:34:37;23.63;;;15.93;;
42000;SDS011;27689;48.390;10.856;2024-03-08T01:37:21;25.05;;;15.48;;
42000;SDS011;27689;48.390;10.856;2024-03-08T01:40:05;23.95;;;15.20;;
42000;SDS011;27689;48.390;10.856;2024-03-08T01:42:52;26.98;;;16.58;;
42000;SDS011;27689;48.390;10.856;2024-03-08T01:45:37;24.42;;;15.35;;
42000;SDS011;27689;48.390;10.856;2024-03-08T01:48:21;24.77;;;15.95;;
42000;SDS011;27689;48.390;10.856;2024-03-08T01:51:08;23.90;;;15.05;;
42000;SDS011;27689;48.390;10.856;2024-03-08T01:53:53;26.30;;;16.08;;
42000;SDS011;27689;48.390;10.856;2024-03-08T01:59:22;22.00;;;14.75;;
42000;SDS011;27689;48.390;10.856;2024-03-08T02:02:07;23.30;;;15.55;;
42000;SDS011;27689;48.390;10.856;2024-03-08T02:04:52;26.80;;;16.45;;
42000;SDS011;27689;48.390;10.856;2024-03-08T02:07:36;25.70;;;16.50;;
42000;SDS011;27689;48.390;10.856;2024-03-08T02:10:20;26.65;;;15.77;;
42000;SDS011;27689;48.390;10.856;2024-03-08T02:13:05;25.92;;;15.52;;
42000;SDS011;27689;48.390;10.856;2024-03-08T02:15:50;24.85;;;15.65;;
42000;SDS011;27689;48.390;10.856;2024-03-08T02:21:18;23.65;;;16.15;;
42000;SDS011;27689;48.390;10.856;2024-03-08T02:24:02;24.80;;;16.52;;
42000;SDS011;27689;48.390;10.856;2024-03-08T02:26:47;26.40;;;16.48;;
42000;SDS011;27689;48.390;10.856;2024-03-08T02:29:31;24.88;;;16.35;;
42000;SDS011;27689;48.390;10.856;2024-03-08T02:32:17;28.90;;;17.20;;
42000;SDS011;27689;48.390;10.856;2024-03-08T02:35:01;25.10;;;16.55;;
42000;SDS011;27689;48.390;10.856;2024-03-08T02:37:45;26.95;;;17.17;;
42000;SDS011;27689;48.390;10.856;2024-03-08T02:40:31;25.33;;;17.02;;
42000;SDS011;27689;48.390;10.856;2024-03-08T02:46:01;28.98;;;17.80;;
42000;SDS011;27689;48.390;10.856;2024-03-08T02:48:45;24.50;;;16.43;;
42000;SDS011;27689;48.390;10.856;2024-03-08T02:51:29;27.52;;;17.70;;
42000;SDS011;27689;48.390;10.856;2024-03-08T02:54:12;29.77;;;17.20;;
42000;SDS011;27689;48.390;10.856;2024-03-08T02:56:56;30.13;;;17.67;;
42000;SDS011;27689;48.390;10.856;2024-03-08T02:59:40;24.83;;;16.13;;
42000;SDS011;27689;48.390;10.856;2024-03-08T03:02:25;24.42;;;16.00;;
42000;SDS011;27689;48.390;10.856;2024-03-08T03:05:09;28.08;;;17.58;;
42000;SDS011;27689;48.390;10.856;2024-03-08T03:07:54;28.58;;;17.52;;
42000;SDS011;27689;48.390;10.856;2024-03-08T03:10:38;28.83;;;17.75;;
42000;SDS011;27689;48.390;10.856;2024-03-08T03:13:22;31.42;;;18.80;;
42000;SDS011;27689;48.390;10.856;2024-03-08T03:16:07;29.17;;;18.77;;
42000;SDS011;27689;48.390;10.856;2024-03-08T03:18:50;26.50;;;17.58;;
42000;SDS011;27689;48.390;10.856;2024-03-08T03:21:34;27.65;;;17.52;;
42000;SDS011;27689;48.390;10.856;2024-03-08T03:24:19;31.90;;;18.70;;
42000;SDS011;27689;48.390;10.856;2024-03-08T03:27:05;32.45;;;19.85;;
42000;SDS011;27689;48.390;10.856;2024-03-08T03:29:54;29.98;;;19.20;;
42000;SDS011;27689;48.390;10.856;2024-03-08T03:32:39;31.33;;;19.25;;
42000;SDS011;27689;48.390;10.856;2024-03-08T03:35:30;32.22;;;19.95;;
42000;SDS011;27689;48.390;10.856;2024-03-08T03:38:14;28.48;;;17.95;;
42000;SDS011;27689;48.390;10.856;2024-03-08T03:40:58;30.17;;;19.15;;
42000;SDS011;27689;48.390;10.856;2024-03-08T03:43:47;32.00;;;18.95;;
42000;SDS011;27689;48.390;10.856;2024-03-08T03:46:33;34.22;;;19.60;;
42000;SDS011;27689;48.390;10.856;2024-03-08T03:49:17;33.50;;;20.27;;
42000;SDS011;27689;48.390;10.856;2024-03-08T03:52:01;34.70;;;20.23;;
42000;SDS011;27689;48.390;10.856;2024-03-08T03:54:46;31.33;;;19.60;;
42000;SDS011;27689;48.390;10.856;2024-03-08T03:57:30;33.63;;;20.63;;
42000;SDS011;27689;48.390;10.856;2024-03-08T04:00:14;32.97;;;19.80;;
42000;SDS011;27689;48.390;10.856;2024-03-08T04:02:58;36.10;;;21.83;;
42000;SDS011;27689;48.390;10.856;2024-03-08T04:05:44;38.17;;;21.80;;
42000;SDS011;27689;48.390;10.856;2024-03-08T04:08:30;33.38;;;20.77;;
42000;SDS011;27689;48.390;10.856;2024-03-08T04:11:14;34.92;;;21.65;;
42000;SDS011;27689;48.390;10.856;2024-03-08T04:14:00;34.15;;;20.95;;
42000;SDS011;27689;48.390;10.856;2024-03-08T04:16:44;33.10;;;20.58;;
42000;SDS011;27689;48.390;10.856;2024-03-08T04:19:28;37.17;;;22.15;;
42000;SDS011;27689;48.390;10.856;2024-03-08T04:22:12;34.97;;;22.45;;
42000;SDS011;27689;48.390;10.856;2024-03-08T04:24:57;33.33;;;21.17;;
42000;SDS011;27689;48.390;10.856;2024-03-08T04:27:41;38.70;;;22.83;;
42000;SDS011;27689;48.390;10.856;2024-03-08T04:30:24;33.17;;;20.10;;
42000;SDS011;27689;48.390;10.856;2024-03-08T04:33:08;36.28;;;22.00;;
42000;SDS011;27689;48.390;10.856;2024-03-08T04:35:53;36.50;;;21.85;;
42000;SDS011;27689;48.390;10.856;2024-03-08T04:38:37;38.47;;;21.75;;
42000;SDS011;27689;48.390;10.856;2024-03-08T04:41:24;31.73;;;20.92;;
42000;SDS011;27689;48.390;10.856;2024-03-08T04:44:08;38.83;;;22.17;;
42000;SDS011;27689;48.390;10.856;2024-03-08T04:46:53;35.97;;;22.40;;
42000;SDS011;27689;48.390;10.856;2024-03-08T04:49:37;36.38;;;21.20;;
42000;SDS011;27689;48.390;10.856;2024-03-08T04:52:21;34.45;;;21.73;;
42000;SDS011;27689;48.390;10.856;2024-03-08T04:57:50;35.08;;;20.50;;
42000;SDS011;27689;48.390;10.856;2024-03-08T05:00:34;35.70;;;20.52;;
42000;SDS011;27689;48.390;10.856;2024-03-08T05:03:19;33.85;;;21.13;;
42000;SDS011;27689;48.390;10.856;2024-03-08T05:06:03;36.88;;;21.88;;
42000;SDS011;27689;48.390;10.856;2024-03-08T05:08:46;34.05;;;20.50;;
42000;SDS011;27689;48.390;10.856;2024-03-08T05:11:30;38.22;;;22.42;;
42000;SDS011;27689;48.390;10.856;2024-03-08T05:14:14;38.63;;;23.25;;
42000;SDS011;27689;48.390;10.856;2024-03-08T05:17:06;40.13;;;22.85;;
42000;SDS011;27689;48.390;10.856;2024-03-08T05:19:50;37.83;;;21.75;;
42000;SDS011;27689;48.390;10.856;2024-03-08T05:25:19;36.93;;;22.03;;
42000;SDS011;27689;48.390;10.856;2024-03-08T05:28:03;33.72;;;21.27;;
42000;SDS011;27689;48.390;10.856;2024-03-08T05:30:47;35.25;;;21.77;;
42000;SDS011;27689;48.390;10.856;2024-03-08T05:33:31;40.00;;;22.25;;
42000;SDS011;27689;48.390;10.856;2024-03-08T05:36:15;40.30;;;22.50;;
42000;SDS011;27689;48.390;10.856;2024-03-08T05:39:03;35.83;;;21.90;;
42000;SDS011;27689;48.390;10.856;2024-03-08T05:41:49;36.22;;;22.10;;
42000;SDS011;27689;48.390;10.856;2024-03-08T05:44:34;36.47;;;21.83;;
42000;SDS011;27689;48.390;10.856;2024-03-08T05:47:18;37.35;;;22.88;;
42000;SDS011;27689;48.390;10.856;2024-03-08T05:50:02;42.72;;;24.63;;
42000;SDS011;27689;48.390;10.856;2024-03-08T05:52:47;48.08;;;24.67;;
42000;SDS011;27689;48.390;10.856;2024-03-08T05:55:31;40.45;;;24.05;;
42000;SDS011;27689;48.390;10.856;2024-03-08T05:58:18;42.47;;;23.77;;
42000;SDS011;27689;48.390;10.856;2024-03-08T06:01:02;41.33;;;22.92;;
42000;SDS011;27689;48.390;10.856;2024-03-08T06:03:51;46.13;;;24.25;;
42000;SDS011;27689;48.390;10.856;2024-03-08T06:06:40;42.15;;;22.80;;
42000;SDS011;27689;48.390;10.856;2024-03-08T06:09:24;42.05;;;24.25;;
42000;SDS011;27689;48.390;10.856;2024-03-08T06:12:09;40.55;;;24.48;;
42000;SDS011;27689;48.390;10.856;2024-03-08T06:14:54;39.47;;;22.77;;
42000;SDS011;27689;48.390;10.856;2024-03-08T06:17:38;39.83;;;23.88;;
42000;SDS011;27689;48.390;10.856;2024-03-08T06:20:22;38.97;;;23.38;;
42000;SDS011;27689;48.390;10.856;2024-03-08T06:23:09;41.17;;;23.42;;
42000;SDS011;27689;48.390;10.856;2024-03-08T06:25:53;39.08;;;23.63;;
42000;SDS011;27689;48.390;10.856;2024-03-08T06:28:38;45.97;;;23.95;;
42000;SDS011;27689;48.390;10.856;2024-03-08T06:31:22;45.67;;;25.15;;
42000;SDS011;27689;48.390;10.856;2024-03-08T06:34:06;42.72;;;24.08;;
42000;SDS011;27689;48.390;10.856;2024-03-08T06:36:53;41.65;;;24.33;;
42000;SDS011;27689;48.390;10.856;2024-03-08T06:39:44;42.80;;;24.77;;
42000;SDS011;27689;48.390;10.856;2024-03-08T06:42:28;42.10;;;24.48;;
42000;SDS011;27689;48.390;10.856;2024-03-08T06:45:12;42.88;;;24.27;;
42000;SDS011;27689;48.390;10.856;2024-03-08T06:47:59;45.60;;;24.50;;
42000;SDS011;27689;48.390;10.856;2024-03-08T06:50:44;45.35;;;24.33;;
42000;SDS011;27689;48.390;10.856;2024-03-08T06:53:28;47.10;;;25.65;;
42000;SDS011;27689;48.390;10.856;2024-03-08T06:56:12;47.17;;;25.23;;
42000;SDS011;27689;48.390;10.856;2024-03-08T06:58:56;43.78;;;25.35;;
42000;SDS011;27689;48.390;10.856;2024-03-08T07:01:40;45.22;;;26.50;;
42000;SDS011;27689;48.390;10.856;2024-03-08T07:04:25;50.00;;;25.85;;
42000;SDS011;27689;48.390;10.856;2024-03-08T07:07:13;44.45;;;24.83;;
42000;SDS011;27689;48.390;10.856;2024-03-08T07:09:57;49.65;;;27.38;;
42000;SDS011;27689;48.390;10.856;2024-03-08T07:12:41;48.55;;;26.10;;
42000;SDS011;27689;48.390;10.856;2024-03-08T07:15:25;46.47;;;25.10;;
42000;SDS011;27689;48.390;10.856;2024-03-08T07:18:09;45.45;;;25.50;;
42000;SDS011;27689;48.390;10.856;2024-03-08T07:20:57;46.38;;;25.77;;
42000;SDS011;27689;48.390;10.856;2024-03-08T07:23:41;45.72;;;25.90;;
42000;SDS011;27689;48.390;10.856;2024-03-08T07:26:53;47.60;;;26.50;;
42000;SDS011;27689;48.390;10.856;2024-03-08T07:29:39;47.17;;;24.67;;
42000;SDS011;27689;48.390;10.856;2024-03-08T07:32:23;45.40;;;25.02;;
42000;SDS011;27689;48.390;10.856;2024-03-08T07:35:09;46.60;;;26.35;;
42000;SDS011;27689;48.390;10.856;2024-03-08T07:37:53;44.40;;;25.00;;
42000;SDS011;27689;48.390;10.856;2024-03-08T07:40:38;54.72;;;27.30;;
42000;SDS011;27689;48.390;10.856;2024-03-08T07:43:24;49.05;;;26.98;;
42000;SDS011;27689;48.390;10.856;2024-03-08T07:46:09;51.88;;;27.77;;
42000;SDS011;27689;48.390;10.856;2024-03-08T07:48:54;55.00;;;29.05;;
42000;SDS011;27689;48.390;10.856;2024-03-08T07:51:38;53.05;;;27.73;;
42000;SDS011;27689;48.390;10.856;2024-03-08T07:54:22;49.15;;;27.00;;
42000;SDS011;27689;48.390;10.856;2024-03-08T07:57:05;49.10;;;25.92;;
42000;SDS011;27689;48.390;10.856;2024-03-08T07:59:50;48.17;;;26.17;;
42000;SDS011;27689;48.390;10.856;2024-03-08T08:02:34;47.47;;;25.25;;
42000;SDS011;27689;48.390;10.856;2024-03-08T08:05:19;51.00;;;26.63;;
42000;SDS011;27689;48.390;10.856;2024-03-08T08:08:03;53.35;;;28.63;;
42000;SDS011;27689;48.390;10.856;2024-03-08T08:10:51;49.63;;;26.73;;
42000;SDS011;27689;48.390;10.856;2024-03-08T08:13:35;44.22;;;26.13;;
42000;SDS011;27689;48.390;10.856;2024-03-08T08:16:20;47.05;;;25.88;;
42000;SDS011;27689;48.390;10.856;2024-03-08T08:19:06;48.55;;;26.30;;
42000;SDS011;27689;48.390;10.856;2024-03-08T08:21:51;48.15;;;26.30;;
42000;SDS011;27689;48.390;10.856;2024-03-08T08:24:35;50.08;;;26.65;;
42000;SDS011;27689;48.390;10.856;2024-03-08T08:27:20;50.13;;;26.98;;
42000;SDS011;27689;48.390;10.856;2024-03-08T08:30:04;50.70;;;27.55;;
42000;SDS011;27689;48.390;10.856;2024-03-08T08:32:51;50.05;;;28.48;;
42000;SDS011;27689;48.390;10.856;2024-03-08T08:35:38;51.13;;;28.00;;
42000;SDS011;27689;48.390;10.856;2024-03-08T08:38:22;51.03;;;26.30;;
42000;SDS011;27689;48.390;10.856;2024-03-08T08:41:07;51.47;;;28.08;;
42000;SDS011;27689;48.390;10.856;2024-03-08T08:43:51;51.95;;;27.48;;
42000;SDS011;27689;48.390;10.856;2024-03-08T08:46:36;52.60;;;28.30;;
42000;SDS011;27689;48.390;10.856;2024-03-08T08:49:21;52.38;;;28.08;;
42000;SDS011;27689;48.390;10.856;2024-03-08T08:52:05;46.33;;;26.73;;
42000;SDS011;27689;48.390;10.856;2024-03-08T08:54:49;45.80;;;26.08;;
42000;SDS011;27689;48.390;10.856;2024-03-08T08:57:34;50.78;;;26.65;;
42000;SDS011;27689;48.390;10.856;2024-03-08T09:00:19;47.42;;;26.65;;
42000;SDS011;27689;48.390;10.856;2024-03-08T09:03:04;49.83;;;27.40;;
42000;SDS011;27689;48.390;10.856;2024-03-08T09:05:50;48.28;;;27.05;;
42000;SDS011;27689;48.390;10.856;2024-03-08T09:08:34;53.85;;;28.73;;
42000;SDS011;27689;48.390;10.856;2024-03-08T09:11:18;47.30;;;26.35;;
42000;SDS011;27689;48.390;10.856;2024-03-08T09:14:02;46.42;;;26.52;;
42000;SDS011;27689;48.390;10.856;2024-03-08T09:16:46;42.83;;;25.85;;
42000;SDS011;27689;48.390;10.856;2024-03-08T09:19:30;48.75;;;26.58;;
42000;SDS011;27689;48.390;10.856;2024-03-08T09:22:16;46.00;;;26.95;;
42000;SDS011;27689;48.390;10.856;2024-03-08T09:25:00;49.17;;;25.98;;
42000;SDS011;27689;48.390;10.856;2024-03-08T09:27:44;45.75;;;25.92;;
42000;SDS011;27689;48.390;10.856;2024-03-08T09:30:30;44.88;;;26.58;;
42000;SDS011;27689;48.390;10.856;2024-03-08T09:33:13;44.85;;;25.48;;
42000;SDS011;27689;48.390;10.856;2024-03-08T09:36:02;46.63;;;26.75;;
42000;SDS011;27689;48.390;10.856;2024-03-08T09:38:47;45.42;;;26.95;;
42000;SDS011;27689;48.390;10.856;2024-03-08T09:41:33;44.20;;;26.25;;
42000;SDS011;27689;48.390;10.856;2024-03-08T09:44:17;46.58;;;27.55;;
42000;SDS011;27689;48.390;10.856;2024-03-08T09:47:03;46.22;;;27.45;;
42000;SDS011;27689;48.390;10.856;2024-03-08T09:49:48;45.33;;;26.45;;
42000;SDS011;27689;48.390;10.856;2024-03-08T09:52:32;44.70;;;26.77;;
42000;SDS011;27689;48.390;10.856;2024-03-08T09:58:06;41.05;;;23.83;;
42000;SDS011;27689;48.390;10.856;2024-03-08T10:01:16;42.60;;;25.00;;
42000;SDS011;27689;48.390;10.856;2024-03-08T10:04:02;46.05;;;25.83;;
42000;SDS011;27689;48.390;10.856;2024-03-08T10:06:46;43.47;;;25.33;;
42000;SDS011;27689;48.390;10.856;2024-03-08T10:09:33;42.10;;;25.63;;
42000;SDS011;27689;48.390;10.856;2024-03-08T10:12:17;46.20;;;25.52;;
42000;SDS011;27689;48.390;10.856;2024-03-08T10:15:03;39.17;;;23.50;;
42000;SDS011;27689;48.390;10.856;2024-03-08T10:17:48;41.20;;;23.73;;
42000;SDS011;27689;48.390;10.856;2024-03-08T10:20:32;42.22;;;24.88;;
42000;SDS011;27689;48.390;10.856;2024-03-08T10:23:17;43.38;;;25.67;;
42000;SDS011;27689;48.390;10.856;2024-03-08T10:26:16;42.83;;;26.23;;
42000;SDS011;27689;48.390;10.856;2024-03-08T10:29:02;37.95;;;24.35;;
42000;SDS011;27689;48.390;10.856;2024-03-08T10:31:47;45.08;;;26.90;;
42000;SDS011;27689;48.390;10.856;2024-03-08T10:34:32;45.88;;;26.10;;
42000;SDS011;27689;48.390;10.856;2024-03-08T10:37:15;37.00;;;24.60;;
42000;SDS011;27689;48.390;10.856;2024-03-08T10:40:06;42.10;;;25.80;;
42000;SDS011;27689;48.390;10.856;2024-03-08T10:42:59;41.80;;;24.85;;
42000;SDS011;27689;48.390;10.856;2024-03-08T10:45:43;40.65;;;24.20;;
42000;SDS011;27689;48.390;10.856;2024-03-08T10:48:31;39.67;;;24.45;;
42000;SDS011;27689;48.390;10.856;2024-03-08T10:51:16;37.58;;;23.67;;
42000;SDS011;27689;48.390;10.856;2024-03-08T10:54:00;35.05;;;22.73;;
42000;SDS011;27689;48.390;10.856;2024-03-08T10:56:47;32.67;;;21.85;;
42000;SDS011;27689;48.390;10.856;2024-03-08T10:59:32;35.75;;;22.58;;
42000;SDS011;27689;48.390;10.856;2024-03-08T11:02:18;33.97;;;21.45;;
42000;SDS011;27689;48.390;10.856;2024-03-08T11:05:03;31.90;;;20.85;;
42000;SDS011;27689;48.390;10.856;2024-03-08T11:07:49;30.55;;;20.40;;
42000;SDS011;27689;48.390;10.856;2024-03-08T11:10:33;30.35;;;20.02;;
42000;SDS011;27689;48.390;10.856;2024-03-08T11:13:36;35.47;;;21.87;;
42000;SDS011;27689;48.390;10.856;2024-03-08T11:21:57;30.38;;;20.50;;
42000;SDS011;27689;48.390;10.856;2024-03-08T11:24:42;29.05;;;19.55;;
42000;SDS011;27689;48.390;10.856;2024-03-08T11:27:32;32.65;;;20.70;;
42000;SDS011;27689;48.390;10.856;2024-03-08T11:30:16;29.88;;;20.40;;
42000;SDS011;27689;48.390;10.856;2024-03-08T11:33:10;32.13;;;21.38;;
42000;SDS011;27689;48.390;10.856;2024-03-08T11:36:02;29.08;;;20.48;;
42000;SDS011;27689;48.390;10.856;2024-03-08T11:38:59;27.27;;;19.33;;
42000;SDS011;27689;48.390;10.856;2024-03-08T11:41:51;26.75;;;19.25;;
42000;SDS011;27689;48.390;10.856;2024-03-08T11:44:35;26.98;;;19.35;;
42000;SDS011;27689;48.390;10.856;2024-03-08T11:47:20;27.50;;;19.38;;
42000;SDS011;27689;48.390;10.856;2024-03-08T11:50:06;27.58;;;18.92;;
42000;SDS011;27689;48.390;10.856;2024-03-08T11:53:00;30.25;;;19.88;;
42000;SDS011;27689;48.390;10.856;2024-03-08T11:55:47;26.88;;;17.85;;
42000;SDS011;27689;48.390;10.856;2024-03-08T12:01:16;25.65;;;16.92;;
42000;SDS011;27689;48.390;10.856;2024-03-08T12:04:00;29.27;;;19.02;;
42000;SDS011;27689;48.390;10.856;2024-03-08T12:06:45;26.40;;;18.33;;
42000;SDS011;27689;48.390;10.856;2024-03-08T12:09:31;27.38;;;18.90;;
42000;SDS011;27689;48.390;10.856;2024-03-08T12:12:15;27.27;;;17.63;;
42000;SDS011;27689;48.390;10.856;2024-03-08T12:14:59;27.37;;;17.90;;
42000;SDS011;27689;48.390;10.856;2024-03-08T12:17:44;24.30;;;16.87;;
42000;SDS011;27689;48.390;10.856;2024-03-08T12:20:31;25.88;;;16.67;;
42000;SDS011;27689;48.390;10.856;2024-03-08T12:23:15;23.80;;;17.17;;
42000;SDS011;27689;48.390;10.856;2024-03-08T12:26:10;27.00;;;16.95;;
42000;SDS011;27689;48.390;10.856;2024-03-08T12:29:18;24.02;;;17.20;;
42000;SDS011;27689;48.390;10.856;2024-03-08T12:32:03;22.75;;;16.38;;
42000;SDS011;27689;48.390;10.856;2024-03-08T12:34:52;25.50;;;16.35;;
42000;SDS011;27689;48.390;10.856;2024-03-08T12:37:37;25.35;;;16.73;;
42000;SDS011;27689;48.390;10.856;2024-03-08T12:43:13;22.85;;;16.00;;
42000;SDS011;27689;48.390;10.856;2024-03-08T12:45:59;21.67;;;16.05;;
42000;SDS011;27689;48.390;10.856;2024-03-08T12:48:43;23.20;;;15.80;;
42000;SDS011;27689;48.390;10.856;2024-03-08T12:51:30;21.55;;;15.65;;
42000;SDS011;27689;48.390;10.856;2024-03-08T12:54:14;23.35;;;16.55;;
42000;SDS011;27689;48.390;10.856;2024-03-08T12:56:58;23.77;;;16.07;;
42000;SDS011;27689;48.390;10.856;2024-03-08T12:59:42;24.07;;;17.00;;
42000;SDS011;27689;48.390;10.856;2024-03-08T13:02:26;24.83;;;17.27;;
42000;SDS011;27689;48.390;10.856;2024-03-08T13:05:10;24.02;;;16.60;;
42000;SDS011;27689;48.390;10.856;2024-03-08T13:07:54;23.70;;;15.73;;
42000;SDS011;27689;48.390;10.856;2024-03-08T13:10:41;21.83;;;15.07;;
42000;SDS011;27689;48.390;10.856;2024-03-08T13:13:29;22.50;;;16.42;;
42000;SDS011;27689;48.390;10.856;2024-03-08T13:16:13;23.47;;;16.60;;
42000;SDS011;27689;48.390;10.856;2024-03-08T13:19:01;19.85;;;15.45;;
42000;SDS011;27689;48.390;10.856;2024-03-08T13:21:45;21.07;;;15.40;;
42000;SDS011;27689;48.390;10.856;2024-03-08T13:24:33;21.38;;;15.68;;
42000;SDS011;27689;48.390;10.856;2024-03-08T13:27:17;22.45;;;15.85;;
42000;SDS011;27689;48.390;10.856;2024-03-08T13:30:05;19.38;;;14.38;;
42000;SDS011;27689;48.390;10.856;2024-03-08T13:35:36;21.38;;;15.30;;
42000;SDS011;27689;48.390;10.856;2024-03-08T13:41:06;19.95;;;13.63;;
42000;SDS011;27689;48.390;10.856;2024-03-08T13:43:50;17.70;;;12.80;;
42000;SDS011;27689;48.390;10.856;2024-03-08T13:46:34;19.80;;;13.35;;
42000;SDS011;27689;48.390;10.856;2024-03-08T13:49:20;19.88;;;14.23;;
42000;SDS011;27689;48.390;10.856;2024-03-08T13:52:05;20.10;;;14.27;;
42000;SDS011;27689;48.390;10.856;2024-03-08T13:57:35;19.02;;;13.60;;
42000;SDS011;27689;48.390;10.856;2024-03-08T14:00:19;17.10;;;11.90;;
42000;SDS011;27689;48.390;10.856;2024-03-08T14:03:07;17.70;;;12.75;;
42000;SDS011;27689;48.390;10.856;2024-03-08T14:05:50;20.30;;;14.13;;
42000;SDS011;27689;48.390;10.856;2024-03-08T14:08:35;19.07;;;13.73;;
42000;SDS011;27689;48.390;10.856;2024-03-08T14:11:21;18.75;;;14.02;;
42000;SDS011;27689;48.390;10.856;2024-03-08T14:14:07;19.70;;;13.85;;
42000;SDS011;27689;48.390;10.856;2024-03-08T14:16:52;19.83;;;13.27;;
42000;SDS011;27689;48.390;10.856;2024-03-08T14:19:38;20.73;;;13.00;;
42000;SDS011;27689;48.390;10.856;2024-03-08T14:22:23;18.67;;;13.32;;
42000;SDS011;27689;48.390;10.856;2024-03-08T14:25:07;18.60;;;13.10;;
42000;SDS011;27689;48.390;10.856;2024-03-08T14:28:00;20.25;;;12.45;;
42000;SDS011;27689;48.390;10.856;2024-03-08T14:30:47;20.02;;;13.85;;
42000;SDS011;27689;48.390;10.856;2024-03-08T14:33:31;20.98;;;13.40;;
42000;SDS011;27689;48.390;10.856;2024-03-08T14:36:15;16.73;;;12.37;;
42000;SDS011;27689;48.390;10.856;2024-03-08T14:39:03;15.38;;;12.38;;
42000;SDS011;27689;48.390;10.856;2024-03-08T14:44:32;17.63;;;11.77;;
42000;SDS011;27689;48.390;10.856;2024-03-08T14:47:17;17.83;;;12.40;;
42000;SDS011;27689;48.390;10.856;2024-03-08T14:50:01;15.85;;;11.73;;
42000;SDS011;27689;48.390;10.856;2024-03-08T14:52:45;17.98;;;12.88;;
42000;SDS011;27689;48.390;10.856;2024-03-08T14:55:31;15.15;;;11.63;;
42000;SDS011;27689;48.390;10.856;2024-03-08T14:58:22;16.80;;;12.13;;
42000;SDS011;27689;48.390;10.856;2024-03-08T15:01:08;14.95;;;11.13;;
42000;SDS011;27689;48.390;10.856;2024-03-08T15:03:52;16.15;;;11.43;;
42000;SDS011;27689;48.390;10.856;2024-03-08T15:06:37;15.37;;;11.07;;
42000;SDS011;27689;48.390;10.856;2024-03-08T15:09:22;16.85;;;11.98;;
42000;SDS011;27689;48.390;10.856;2024-03-08T15:12:06;14.43;;;10.83;;
42000;SDS011;27689;48.390;10.856;2024-03-08T15:14:51;15.57;;;11.00;;
42000;SDS011;27689;48.390;10.856;2024-03-08T15:17:36;17.73;;;11.00;;
42000;SDS011;27689;48.390;10.856;2024-03-08T15:20:23;14.95;;;10.07;;
42000;SDS011;27689;48.390;10.856;2024-03-08T15:23:09;18.92;;;12.38;;
42000;SDS011;27689;48.390;10.856;2024-03-08T15:25:53;13.30;;;9.95;;
42000;SDS011;27689;48.390;10.856;2024-03-08T15:28:37;15.40;;;10.40;;
42000;SDS011;27689;48.390;10.856;2024-03-08T15:31:21;17.13;;;12.45;;
42000;SDS011;27689;48.390;10.856;2024-03-08T15:34:08;15.98;;;11.25;;
42000;SDS011;27689;48.390;10.856;2024-03-08T15:36:52;17.02;;;10.85;;
42000;SDS011;27689;48.390;10.856;2024-03-08T15:39:37;15.13;;;9.98;;
42000;SDS011;27689;48.390;10.856;2024-03-08T15:42:22;17.73;;;11.23;;
42000;SDS011;27689;48.390;10.856;2024-03-08T15:45:06;14.75;;;10.00;;
42000;SDS011;27689;48.390;10.856;2024-03-08T15:47:53;14.18;;;10.40;;
42000;SDS011;27689;48.390;10.856;2024-03-08T15:53:21;12.65;;;9.45;;
42000;SDS011;27689;48.390;10.856;2024-03-08T15:56:07;13.93;;;10.63;;
42000;SDS011;27689;48.390;10.856;2024-03-08T15:58:52;14.75;;;10.93;;
42000;SDS011;27689;48.390;10.856;2024-03-08T16:01:36;15.88;;;10.77;;
42000;SDS011;27689;48.390;10.856;2024-03-08T16:04:20;15.77;;;10.60;;
42000;SDS011;27689;48.390;10.856;2024-03-08T16:07:05;14.23;;;10.32;;
42000;SDS011;27689;48.390;10.856;2024-03-08T16:09:49;15.63;;;10.02;;
42000;SDS011;27689;48.390;10.856;2024-03-08T16:12:37;16.00;;;10.52;;
42000;SDS011;27689;48.390;10.856;2024-03-08T16:15:23;15.48;;;9.35;;
42000;SDS011;27689;48.390;10.856;2024-03-08T16:18:10;12.38;;;9.15;;
42000;SDS011;27689;48.390;10.856;2024-03-08T16:20:55;15.13;;;10.43;;
42000;SDS011;27689;48.390;10.856;2024-03-08T16:23:39;15.55;;;10.77;;
42000;SDS011;27689;48.390;10.856;2024-03-08T16:26:23;13.02;;;9.48;;
42000;SDS011;27689;48.390;10.856;2024-03-08T16:29:08;16.38;;;11.73;;
42000;SDS011;27689;48.390;10.856;2024-03-08T16:31:52;13.98;;;10.38;;
42000;SDS011;27689;48.390;10.856;2024-03-08T16:34:36;31.38;;;21.20;;
42000;SDS011;27689;48.390;10.856;2024-03-08T16:37:20;15.93;;;11.40;;